Time;durP1;ratioP1;P1;durP2;ratioP2;P2;SDS_P1;SDS_P2;PMS_P1;PMS_P2;Temp;Humidity;BMP_temperature;BMP_pressure;BME280_temperature;BME280_humidity;BME280_pressure;Samples;Min_cycle;Max_cycle;Signal;HPM_P1;HPM_P2
2021/03/01 00:00:11;;;;;;;9.57;3.57;;;0.40;99.90;;;1.25;100.00;99713.00;5005988;28;20486;-80
2021/03/01 00:02:39;;;;;;;5.80;3.70;;;0.30;99.90;;;1.19;100.00;99716.72;5003388;28;20887;-81
2021/03/01 00:05:10;;;;;;;10.33;3.90;;;0.20;99.90;;;1.31;100.00;99722.94;5009261;28;20478;-81
2021/03/01 00:07:38;;;;;;;3.77;3.47;;;0.30;99.90;;;1.25;100.00;99715.56;5004963;28;20890;-81
2021/03/01 00:10:08;;;;;;;9.80;4.40;;;0.20;99.90;;;1.19;100.00;99719.31;5006256;28;20471;-81
2021/03/01 00:12:36;;;;;;;7.47;3.67;;;0.20;99.90;;;1.19;100.00;99714.16;5005908;28;20501;-81
2021/03/01 00:15:04;;;;;;;10.83;4.80;;;0.20;99.90;;;1.16;100.00;99711.75;5005284;28;21046;-81
2021/03/01 00:17:34;;;;;;;9.33;4.50;;;0.20;99.90;;;1.26;100.00;99712.06;5007432;28;20466;-81
2021/03/01 00:20:04;;;;;;;6.77;4.30;;;0.30;99.90;;;1.22;100.00;99708.00;5007059;28;21004;-81
2021/03/01 00:22:31;;;;;;;5.87;3.93;;;0.20;99.90;;;1.14;100.00;99708.44;5007877;28;20762;-81
2021/03/01 00:24:59;;;;;;;6.80;3.97;;;0.20;99.90;;;1.24;100.00;99714.75;5007239;28;20968;-81
2021/03/01 00:27:26;;;;;;;8.83;4.70;;;0.30;99.90;;;1.17;100.00;99718.59;5004342;28;20482;-81
2021/03/01 00:29:53;;;;;;;7.23;4.40;;;0.20;99.90;;;1.06;100.00;99715.78;5003988;28;20455;-82
2021/03/01 00:32:21;;;;;;;8.90;4.87;;;0.10;99.90;;;1.15;100.00;99714.41;5005887;28;20459;-82
2021/03/01 00:34:50;;;;;;;9.00;4.20;;;0.20;99.90;;;1.08;100.00;99708.78;5005911;28;20548;-81
2021/03/01 00:37:17;;;;;;;9.90;4.67;;;0.10;99.90;;;1.08;100.00;99724.22;5005186;28;20462;-81
2021/03/01 00:39:45;;;;;;;9.57;5.37;;;0.10;99.90;;;1.09;100.00;99718.16;5007291;28;20466;-81
2021/03/01 00:42:12;;;;;;;10.50;5.50;;;0.20;99.90;;;1.05;100.00;99719.25;5001192;28;20475;-81
2021/03/01 00:44:41;;;;;;;6.60;3.83;;;0.00;99.90;;;1.02;100.00;99712.53;5005878;28;20929;-81
2021/03/01 00:47:08;;;;;;;15.40;4.70;;;0.00;99.90;;;1.00;100.00;99705.81;5004232;28;20569;-82
2021/03/01 00:49:36;;;;;;;15.80;5.30;;;0.00;99.90;;;0.96;100.00;99712.06;5004871;28;20963;-81
2021/03/01 00:52:06;;;;;;;9.37;4.60;;;0.00;99.90;;;1.00;100.00;99708.41;5005447;28;20481;-81
2021/03/01 00:54:33;;;;;;;8.87;4.53;;;0.00;99.90;;;0.99;100.00;99705.00;5005766;28;20530;-81
2021/03/01 00:57:01;;;;;;;12.80;5.67;;;0.00;99.90;;;0.88;100.00;99706.50;5005458;28;20493;-81
2021/03/01 00:59:29;;;;;;;13.63;4.30;;;-0.10;99.90;;;0.81;100.00;99706.00;5004255;28;21023;-81
2021/03/01 01:01:56;;;;;;;12.23;5.40;;;-0.20;99.90;;;0.87;100.00;99713.38;5006499;28;21000;-81
2021/03/01 01:04:24;;;;;;;22.10;5.30;;;-0.10;99.90;;;0.86;100.00;99708.34;5005616;28;20471;-81
2021/03/01 01:06:52;;;;;;;9.13;5.37;;;-0.10;99.90;;;0.91;100.00;99706.31;5005736;28;20822;-81
2021/03/01 01:09:20;;;;;;;9.33;5.40;;;0.00;99.90;;;0.87;100.00;99705.66;5003267;28;20851;-81
2021/03/01 01:11:48;;;;;;;8.67;4.70;;;-0.10;99.90;;;0.87;100.00;99708.22;5004722;28;20478;-81
2021/03/01 01:14:15;;;;;;;9.97;5.63;;;-0.10;99.90;;;0.92;100.00;99697.69;5005022;28;20908;-81
2021/03/01 01:16:43;;;;;;;10.63;5.80;;;-0.10;99.90;;;0.86;100.00;99698.03;5006319;28;20462;-81
2021/03/01 01:19:11;;;;;;;11.63;5.50;;;-0.10;99.90;;;0.84;100.00;99699.84;5004855;28;20467;-81
2021/03/01 01:21:38;;;;;;;9.60;5.00;;;-0.10;99.90;;;0.84;100.00;99702.41;5004363;28;20462;-81
2021/03/01 01:24:07;;;;;;;12.00;5.10;;;-0.10;99.90;;;0.81;100.00;99694.88;5007028;28;20508;-81
2021/03/01 01:26:35;;;;;;;9.00;4.50;;;-0.20;99.90;;;0.70;100.00;99699.78;5006306;28;20529;-81
2021/03/01 01:29:03;;;;;;;8.10;4.60;;;-0.20;99.90;;;0.81;100.00;99694.88;5004773;28;20509;-81
2021/03/01 01:31:30;;;;;;;9.43;5.00;;;-0.10;99.90;;;0.85;100.00;99696.38;5006108;28;20462;-81
2021/03/01 01:33:58;;;;;;;13.13;5.87;;;-0.10;99.90;;;0.69;100.00;99693.00;5005758;28;20473;-81
2021/03/01 01:36:25;;;;;;;11.77;6.60;;;-0.30;99.90;;;0.81;100.00;99687.16;5006766;28;20967;-81
2021/03/01 01:38:53;;;;;;;11.40;5.87;;;-0.20;99.90;;;0.76;100.00;99689.16;5003286;28;20517;-81
2021/03/01 01:41:21;;;;;;;11.07;5.33;;;-0.20;99.90;;;0.69;100.00;99698.13;5003607;28;20467;-81
2021/03/01 01:43:49;;;;;;;11.23;6.07;;;-0.30;99.90;;;0.75;100.00;99690.06;5004745;28;20818;-81
2021/03/01 01:46:17;;;;;;;11.27;4.90;;;-0.20;99.90;;;0.65;100.00;99699.22;5006751;28;20454;-82
2021/03/01 01:48:44;;;;;;;10.03;5.30;;;-0.40;99.90;;;0.67;100.00;99692.22;5004191;28;20506;-81
2021/03/01 01:51:12;;;;;;;9.07;5.63;;;-0.30;99.90;;;0.71;100.00;99696.28;5003813;28;20462;-81
2021/03/01 01:53:40;;;;;;;9.87;5.83;;;-0.30;99.90;;;0.75;100.00;99695.22;5006077;28;20463;-81
2021/03/01 01:56:08;;;;;;;8.77;5.17;;;-0.20;99.90;;;0.71;100.00;99686.00;5005673;28;20482;-81
2021/03/01 01:58:36;;;;;;;11.80;6.30;;;-0.30;99.90;;;0.76;100.00;99687.44;5004098;28;20475;-81
2021/03/01 02:01:05;;;;;;;10.77;5.17;;;-0.20;99.90;;;0.68;100.00;99689.59;5003902;28;20477;-81
2021/03/01 02:03:51;;;;;;;16.20;6.73;;;-0.30;99.90;;;0.71;100.00;99694.56;5006826;28;20470;-81
2021/03/01 02:06:36;;;;;;;10.67;5.80;;;-0.30;99.90;;;0.77;100.00;99683.09;5003950;28;20475;-81
2021/03/01 02:09:29;;;;;;;10.27;5.90;;;-0.20;99.90;;;0.76;100.00;99686.59;5003851;28;20611;-81
2021/03/01 02:12:11;;;;;;;10.73;5.97;;;-0.20;99.90;;;0.78;100.00;99677.88;5005987;28;21035;-81
2021/03/01 02:15:05;;;;;;;13.13;5.83;;;-0.10;99.90;;;0.67;100.00;99681.94;5006117;28;20524;-81
2021/03/01 02:17:34;;;;;;;10.87;5.80;;;-0.30;99.90;;;0.69;100.00;99674.97;4997398;28;20471;-81
2021/03/01 02:20:04;;;;;;;16.67;5.80;;;-0.30;99.90;;;0.59;100.00;99676.41;5008887;28;20983;-81
2021/03/01 02:22:32;;;;;;;11.57;6.27;;;-0.40;99.90;;;0.66;100.00;99675.16;5008375;28;20534;-81
2021/03/01 02:25:05;;;;;;;13.17;6.50;;;-0.30;99.90;;;0.61;100.00;99670.25;5009093;28;20538;-81
2021/03/01 02:27:39;;;;;;;11.53;6.13;;;-0.30;99.90;;;0.62;100.00;99668.50;5008657;28;20497;-81
2021/03/01 02:30:16;;;;;;;13.77;7.37;;;-0.40;99.90;;;0.68;100.00;99663.84;5009232;28;20524;-81
2021/03/01 02:32:47;;;;;;;17.40;5.97;;;-0.20;99.90;;;0.61;100.00;99669.41;5009989;28;20451;-81
2021/03/01 02:35:16;;;;;;;13.97;6.13;;;-0.40;99.90;;;0.57;100.00;99671.31;5009405;28;20962;-81
2021/03/01 02:37:48;;;;;;;10.87;5.93;;;-0.40;99.90;;;0.49;100.00;99674.31;5006899;28;20501;-82
2021/03/01 02:40:20;;;;;;;19.80;7.00;;;-0.50;99.90;;;0.56;100.00;99672.22;5008274;28;20458;-82
2021/03/01 02:42:51;;;;;;;13.30;5.70;;;-0.40;99.90;;;0.53;100.00;99669.81;5007345;28;20463;-82
2021/03/01 02:45:19;;;;;;;13.43;6.10;;;-0.40;99.90;;;0.53;100.00;99669.81;5007112;28;20877;-81
2021/03/01 02:47:47;;;;;;;11.33;5.63;;;-0.40;99.90;;;0.57;100.00;99660.19;5007439;28;20482;-81
2021/03/01 02:50:17;;;;;;;11.30;5.20;;;-0.40;99.90;;;0.43;100.00;99664.38;5006679;28;20463;-81
2021/03/01 02:52:48;;;;;;;12.90;4.90;;;-0.50;99.90;;;0.40;100.00;99661.97;5009938;28;20471;-81
2021/03/01 02:55:16;;;;;;;9.90;5.50;;;-0.60;99.90;;;0.54;100.00;99665.50;5006487;28;20899;-81
2021/03/01 02:57:48;;;;;;;15.80;5.57;;;-0.40;99.90;;;0.40;100.00;99659.38;5006328;28;20528;-82
2021/03/01 03:00:16;;;;;;;8.20;4.90;;;-0.60;99.90;;;0.44;100.00;99660.88;5003629;28;20550;-81
2021/03/01 03:02:47;;;;;;;10.10;4.73;;;-0.50;99.90;;;0.43;100.00;99660.94;5008255;28;20451;-83
2021/03/01 03:05:19;;;;;;;7.67;4.60;;;-0.50;99.90;;;0.48;100.00;99664.97;5007526;28;21290;-81
2021/03/01 03:07:49;;;;;;;12.60;4.73;;;-0.50;99.90;;;0.43;100.00;99654.06;5007888;28;20578;-81
2021/03/01 03:10:18;;;;;;;10.03;4.40;;;-0.50;99.90;;;0.45;100.00;99657.38;5004832;28;20478;-82
2021/03/01 03:12:47;;;;;;;8.20;4.43;;;-0.40;99.90;;;0.49;100.00;99651.16;5006339;28;20467;-81
2021/03/01 03:15:20;;;;;;;6.77;4.17;;;-0.40;99.90;;;0.54;100.00;99650.06;5008563;28;20494;-81
2021/03/01 03:17:51;;;;;;;7.60;4.37;;;-0.40;99.90;;;0.39;100.00;99652.56;5007078;28;20475;-81
2021/03/01 03:20:19;;;;;;;8.20;4.60;;;-0.60;99.90;;;0.36;100.00;99652.75;5007705;28;20967;-81
2021/03/01 03:22:49;;;;;;;6.60;3.80;;;-0.60;99.90;;;0.31;100.00;99654.72;5008584;28;20470;-81
2021/03/01 03:25:16;;;;;;;9.03;3.70;;;-0.60;99.90;;;0.38;100.00;99656.06;5005199;28;20455;-81
2021/03/01 03:27:44;;;;;;;12.60;4.70;;;-0.60;99.90;;;0.32;100.00;99651.25;5007455;28;20501;-81
2021/03/01 03:30:16;;;;;;;7.13;4.27;;;-0.50;99.90;;;0.26;100.00;99654.16;5007248;28;20524;-81
2021/03/01 03:32:44;;;;;;;7.00;3.87;;;-0.70;99.90;;;0.25;100.00;99655.06;5008984;28;21010;-81
2021/03/01 03:35:13;;;;;;;8.83;4.77;;;-0.70;99.90;;;0.23;100.00;99651.75;5007760;28;21018;-81
2021/03/01 03:37:49;;;;;;;10.00;4.30;;;-0.80;99.90;;;0.31;100.00;99657.28;5008289;28;22291;-81
2021/03/01 03:40:20;;;;;;;6.30;3.57;;;-0.60;99.90;;;0.29;100.00;99656.56;5005545;28;20585;-81
2021/03/01 03:42:49;;;;;;;7.13;4.27;;;-0.60;99.90;;;0.29;100.00;99654.00;5006694;28;20516;-81
2021/03/01 03:45:20;;;;;;;10.67;4.10;;;-0.60;99.90;;;0.20;100.00;99658.81;5008533;28;20451;-81
2021/03/01 03:47:51;;;;;;;5.20;3.80;;;-0.80;99.90;;;0.25;100.00;99649.91;5007708;28;20490;-81
2021/03/01 03:50:21;;;;;;;7.10;3.83;;;-0.70;99.90;;;0.28;100.00;99654.91;5005440;28;20475;-81
2021/03/01 03:52:57;;;;;;;8.03;4.33;;;-0.70;99.90;;;0.31;100.00;99654.72;5006573;28;20474;-81
2021/03/01 03:55:30;;;;;;;7.33;4.30;;;-0.60;99.90;;;0.14;100.00;99648.84;5007812;28;20505;-81
2021/03/01 03:58:01;;;;;;;8.33;4.00;;;-0.80;99.90;;;0.27;100.00;99650.69;5007144;28;20502;-81
2021/03/01 04:00:34;;;;;;;8.87;3.80;;;-0.70;99.90;;;0.21;100.00;99658.69;5002223;28;21034;-81
2021/03/01 04:03:09;;;;;;;10.93;4.13;;;-0.70;99.90;;;0.24;100.00;99658.56;5005644;28;20490;-81
2021/03/01 04:05:41;;;;;;;8.10;3.90;;;-0.70;99.90;;;0.25;100.00;99654.22;5007544;28;20482;-81
2021/03/01 04:08:12;;;;;;;8.30;3.70;;;-0.60;99.90;;;0.11;100.00;99649.81;5005428;28;20506;-81
2021/03/01 04:10:44;;;;;;;9.00;4.53;;;-0.80;99.90;;;0.06;100.00;99653.56;5007331;28;20479;-81
2021/03/01 04:13:14;;;;;;;8.63;4.17;;;-0.90;99.90;;;-0.01;100.00;99653.91;5005162;28;20459;-81
2021/03/01 04:15:46;;;;;;;8.37;4.10;;;-0.90;99.90;;;0.08;100.00;99655.13;5005558;28;20470;-81
2021/03/01 04:18:19;;;;;;;3.53;2.80;;;-0.80;99.90;;;0.04;100.00;99656.19;5006863;28;21000;-81
2021/03/01 04:20:49;;;;;;;6.30;3.90;;;-0.90;99.90;;;-0.03;100.00;99660.00;5005557;28;20473;-81
2021/03/01 04:23:18;;;;;;;10.77;4.67;;;-1.00;99.90;;;-0.01;100.00;99656.47;5006408;28;20463;-82
2021/03/01 04:25:49;;;;;;;7.67;3.70;;;-1.00;99.90;;;-0.12;100.00;99650.22;5006998;28;20478;-81
2021/03/01 04:28:19;;;;;;;7.23;4.03;;;-1.00;99.90;;;0.03;100.00;99654.56;5005855;28;21099;-81
2021/03/01 04:30:49;;;;;;;7.20;3.97;;;-0.90;99.90;;;0.12;100.00;99642.94;5005139;28;20509;-81
2021/03/01 04:33:18;;;;;;;11.90;4.00;;;-0.80;99.90;;;0.00;100.00;99647.81;5006669;28;20842;-82
2021/03/01 04:35:48;;;;;;;6.80;3.30;;;-0.90;99.90;;;-0.08;100.00;99652.56;5007601;28;20929;-81
2021/03/01 04:38:16;;;;;;;4.57;3.27;;;-1.00;99.90;;;0.03;100.00;99649.44;5004521;28;20466;-81
2021/03/01 04:40:44;;;;;;;17.20;7.53;;;-0.90;99.90;;;0.08;100.00;99647.41;5005984;28;20528;-83
2021/03/01 04:43:15;;;;;;;6.20;4.00;;;-0.80;99.90;;;0.08;100.00;99646.59;5005802;28;20482;-81
2021/03/01 04:45:45;;;;;;;6.03;3.67;;;-0.80;99.90;;;-0.09;100.00;99647.50;5005790;28;20528;-81
2021/03/01 04:48:16;;;;;;;6.53;3.70;;;-1.00;99.90;;;-0.20;100.00;99644.66;5007698;28;20508;-81
2021/03/01 04:50:48;;;;;;;4.93;3.37;;;-1.10;99.90;;;-0.13;100.00;99641.69;5004645;28;20473;-81
2021/03/01 04:53:16;;;;;;;11.47;4.30;;;-1.10;99.90;;;-0.11;100.00;99646.75;5004230;28;20467;-81
2021/03/01 04:55:47;;;;;;;5.40;3.23;;;-1.00;99.90;;;-0.14;100.00;99654.63;5005207;28;20530;-80
2021/03/01 04:58:18;;;;;;;7.07;4.03;;;-1.00;99.90;;;-0.07;100.00;99645.69;5006290;28;20467;-81
2021/03/01 05:00:47;;;;;;;7.13;4.13;;;-1.00;99.90;;;-0.13;100.00;99643.41;5007747;28;20454;-81
2021/03/01 05:03:14;;;;;;;7.90;3.70;;;-1.00;99.90;;;-0.10;100.00;99643.25;5007317;28;20528;-81
2021/03/01 05:05:42;;;;;;;7.27;3.80;;;-1.00;99.90;;;-0.12;100.00;99639.94;5007446;28;20443;-81
2021/03/01 05:08:15;;;;;;;7.37;3.97;;;-1.00;99.90;;;-0.12;100.00;99639.94;5007290;28;20501;-82
2021/03/01 05:10:45;;;;;;;5.97;3.40;;;-1.10;99.90;;;-0.25;100.00;99638.94;5007224;28;20457;-81
2021/03/01 05:13:12;;;;;;;6.07;3.40;;;-1.10;99.90;;;-0.28;100.00;99639.94;5007558;28;20797;-81
2021/03/01 05:15:41;;;;;;;13.27;5.20;;;-1.20;99.90;;;-0.17;100.00;99641.91;5001789;28;21033;-81
2021/03/01 05:18:10;;;;;;;5.57;2.93;;;-1.10;99.90;;;-0.15;100.00;99640.94;5002828;28;20601;-79
2021/03/01 05:20:37;;;;;;;5.13;3.33;;;-1.10;99.90;;;-0.25;100.00;99644.06;5006012;28;20520;-82
2021/03/01 05:23:05;;;;;;;7.50;3.00;;;-1.20;99.90;;;-0.24;100.00;99650.84;5007245;28;20455;-82
2021/03/01 05:25:33;;;;;;;7.73;3.07;;;-1.20;99.90;;;-0.11;100.00;99642.44;5007205;28;20454;-82
2021/03/01 05:28:01;;;;;;;5.53;3.37;;;-1.00;99.90;;;-0.23;100.00;99647.38;5006536;28;20537;-82
2021/03/01 05:30:29;;;;;;;5.07;3.23;;;-1.10;99.90;;;-0.11;100.00;99651.91;5007430;28;20455;-82
2021/03/01 05:32:58;;;;;;;10.20;4.17;;;-1.00;99.90;;;-0.17;100.00;99652.19;5006547;28;20451;-82
2021/03/01 05:35:25;;;;;;;8.80;3.83;;;-1.10;99.90;;;-0.27;100.00;99653.56;5007018;28;20450;-82
2021/03/01 05:37:53;;;;;;;6.00;3.70;;;-1.20;99.90;;;-0.26;100.00;99652.69;5006928;28;20814;-82
2021/03/01 05:40:21;;;;;;;4.90;2.97;;;-1.20;99.90;;;-0.26;100.00;99648.38;5007531;28;20462;-82
2021/03/01 05:42:53;;;;;;;4.23;3.30;;;-1.20;99.90;;;-0.20;100.00;99652.34;5006954;28;20537;-81
2021/03/01 05:45:21;;;;;;;9.30;3.83;;;-1.10;99.90;;;-0.16;100.00;99659.84;5003222;28;20466;-79
2021/03/01 05:47:50;;;;;;;7.83;4.10;;;-1.00;99.90;;;-0.12;100.00;99655.38;5000396;28;21046;-81
2021/03/01 05:50:19;;;;;;;5.60;3.83;;;-1.00;99.90;;;-0.22;100.00;99656.75;5003358;28;20936;-81
2021/03/01 05:52:54;;;;;;;6.73;3.70;;;-1.10;99.90;;;-0.24;100.00;99651.69;5006244;28;20501;-81
2021/03/01 05:55:22;;;;;;;6.17;3.13;;;-1.10;99.90;;;-0.34;100.00;99652.25;5006737;28;20953;-81
2021/03/01 05:57:51;;;;;;;4.43;3.20;;;-1.30;99.90;;;-0.28;100.00;99655.34;5009150;28;20470;-81
2021/03/01 06:00:19;;;;;;;5.73;3.90;;;-1.10;99.90;;;-0.29;100.00;99652.84;5008186;28;20459;-81
2021/03/01 06:02:48;;;;;;;9.60;4.27;;;-1.20;99.90;;;-0.30;100.00;99651.16;5010627;28;20513;-81
2021/03/01 06:05:18;;;;;;;6.67;3.60;;;-1.10;99.90;;;-0.25;100.00;99655.19;5009520;28;20479;-81
2021/03/01 06:07:48;;;;;;;7.33;3.87;;;-1.10;99.90;;;-0.22;100.00;99664.47;5008780;28;20523;-81
2021/03/01 06:10:15;;;;;;;4.57;3.00;;;-1.10;99.90;;;-0.18;100.00;99655.69;5007695;28;20477;-81
2021/03/01 06:12:43;;;;;;;4.73;3.27;;;-0.90;99.90;;;-0.26;100.00;99668.94;5007972;28;20980;-81
2021/03/01 06:15:12;;;;;;;6.70;3.43;;;-1.10;99.90;;;-0.34;100.00;99671.06;5009596;28;20465;-81
2021/03/01 06:17:40;;;;;;;5.03;3.60;;;-1.30;99.90;;;-0.43;100.00;99663.84;5008477;28;20469;-81
2021/03/01 06:20:10;;;;;;;5.97;3.30;;;-1.40;99.90;;;-0.34;100.00;99670.22;5007803;28;20564;-81
2021/03/01 06:22:44;;;;;;;9.10;4.00;;;-1.30;99.90;;;-0.31;100.00;99676.03;5006878;28;20466;-81
2021/03/01 06:25:16;;;;;;;4.87;3.33;;;-1.20;99.90;;;-0.37;100.00;99681.50;5006079;28;20466;-81
2021/03/01 06:27:54;;;;;;;9.57;4.43;;;-1.30;99.90;;;-0.31;100.00;99680.38;5010569;28;20810;-81
2021/03/01 06:30:25;;;;;;;4.73;3.30;;;-1.20;99.90;;;-0.28;100.00;99680.22;5007685;28;20501;-81
2021/03/01 06:33:11;;;;;;;8.20;4.23;;;-1.20;99.90;;;-0.27;100.00;99680.13;5006636;28;20520;-81
2021/03/01 06:35:48;;;;;;;5.83;3.80;;;-1.20;99.90;;;-0.29;100.00;99681.09;5002592;28;20462;-81
2021/03/01 06:38:35;;;;;;;7.37;4.60;;;-1.20;99.90;;;-0.25;100.00;99685.19;5005719;28;21082;-81
2021/03/01 06:41:21;;;;;;;7.10;3.60;;;-1.20;99.90;;;-0.27;100.00;99680.13;5006965;28;20464;-80
2021/03/01 06:43:58;;;;;;;29.47;11.63;;;-1.20;99.90;;;-0.25;100.00;99680.03;5004341;28;20547;-80
2021/03/01 06:46:27;;;;;;;8.60;4.73;;;-1.10;99.90;;;-0.22;100.00;99679.88;5008954;28;20458;-80
2021/03/01 06:49:12;;;;;;;5.97;4.00;;;-1.10;99.90;;;-0.29;100.00;99684.50;5009734;28;20590;-81
2021/03/01 06:51:41;;;;;;;8.90;4.87;;;-1.20;99.90;;;-0.30;100.00;99687.16;5012758;28;20975;-80
2021/03/01 06:54:21;;;;;;;9.27;4.10;;;-1.20;99.90;;;-0.25;100.00;99680.03;5011237;28;20443;-80
2021/03/01 06:56:49;;;;;;;6.40;3.67;;;-1.10;99.90;;;-0.28;100.00;99688.75;5011481;28;20489;-81
2021/03/01 06:59:19;;;;;;;5.33;3.10;;;-1.10;99.90;;;-0.25;100.00;99687.75;5010862;28;20482;-81
2021/03/01 07:01:49;;;;;;;5.97;3.83;;;-1.10;99.90;;;-0.29;100.00;99694.78;5011611;28;21091;-80
2021/03/01 07:04:23;;;;;;;6.70;4.30;;;-1.00;99.90;;;-0.28;100.00;99693.91;5009493;28;20479;-80
2021/03/01 07:06:53;;;;;;;6.60;3.63;;;-1.10;99.90;;;-0.29;100.00;99693.97;5011259;28;20451;-80
2021/03/01 07:09:24;;;;;;;8.50;4.60;;;-1.10;99.90;;;-0.28;100.00;99695.63;5011071;28;21121;-81
2021/03/01 07:11:52;;;;;;;6.17;3.90;;;-1.10;99.90;;;-0.30;100.00;99698.25;5011689;28;20450;-80
2021/03/01 07:14:22;;;;;;;5.37;3.67;;;-1.20;99.90;;;-0.32;100.00;99699.25;5011322;28;21202;-80
2021/03/01 07:16:52;;;;;;;12.43;4.33;;;-1.20;99.90;;;-0.33;100.00;99695.00;5010887;28;20466;-80
2021/03/01 07:19:23;;;;;;;12.07;4.80;;;-1.20;99.90;;;-0.35;100.00;99694.28;5011375;28;20455;-80
2021/03/01 07:21:53;;;;;;;6.97;4.03;;;-1.20;99.90;;;-0.33;100.00;99697.59;5011477;28;20918;-80
2021/03/01 07:24:24;;;;;;;6.43;3.80;;;-1.20;99.90;;;-0.30;100.00;99708.53;5010386;28;20466;-80
2021/03/01 07:26:59;;;;;;;5.87;3.50;;;-1.10;99.90;;;-0.33;100.00;99698.41;5011432;28;20968;-80
2021/03/01 07:29:31;;;;;;;5.83;4.37;;;-1.10;99.90;;;-0.28;100.00;99698.19;5008997;28;20498;-80
2021/03/01 07:32:02;;;;;;;5.17;3.43;;;-1.10;99.90;;;-0.22;100.00;99703.00;5010359;28;20504;-80
2021/03/01 07:34:31;;;;;;;11.37;4.53;;;-1.10;99.90;;;-0.23;100.00;99703.91;5011354;28;20815;-80
2021/03/01 07:37:01;;;;;;;7.63;3.60;;;-1.10;99.90;;;-0.29;100.00;99699.94;5011389;28;20470;-80
2021/03/01 07:39:31;;;;;;;7.30;4.30;;;-1.20;99.90;;;-0.31;100.00;99696.59;5011420;28;20444;-81
2021/03/01 07:42:00;;;;;;;5.50;3.73;;;-1.20;99.90;;;-0.22;100.00;99701.28;5010689;28;20512;-81
2021/03/01 07:44:32;;;;;;;7.17;4.40;;;-1.10;99.90;;;-0.17;100.00;99703.59;5010336;28;20441;-80
2021/03/01 07:47:03;;;;;;;7.60;4.73;;;-1.00;99.90;;;-0.13;100.00;99700.78;5009087;28;20462;-80
2021/03/01 07:49:42;;;;;;;6.80;4.33;;;-0.80;99.90;;;-0.08;100.00;99698.00;5011275;28;20501;-80
2021/03/01 07:52:42;;;;;;;7.37;4.20;;;-0.80;99.90;;;-0.05;100.00;99698.66;5009773;28;20489;-80
2021/03/01 07:55:11;;;;;;;7.37;4.33;;;-0.80;99.90;;;0.01;100.00;99700.06;5009925;28;20510;-81
2021/03/01 07:57:41;;;;;;;9.00;5.13;;;-0.80;99.90;;;0.09;100.00;99708.22;5010224;28;20535;-80
2021/03/01 08:00:29;;;;;;;8.67;4.77;;;-0.70;99.90;;;0.17;100.00;99703.53;5010326;28;20455;-81
2021/03/01 08:02:58;;;;;;;11.23;5.30;;;-0.60;99.90;;;0.22;100.00;99701.53;5009769;28;20472;-80
2021/03/01 08:05:29;;;;;;;11.83;5.00;;;-0.50;99.90;;;0.30;100.00;99707.09;5008994;28;20447;-80
2021/03/01 08:07:57;;;;;;;9.03;5.07;;;-0.30;99.90;;;0.36;100.00;99703.34;5008792;28;20451;-80
2021/03/01 08:10:54;;;;;;;12.40;6.37;;;-0.40;99.90;;;0.43;100.00;99708.09;5010827;28;20509;-80
2021/03/01 08:13:31;;;;;;;9.30;5.40;;;-0.20;99.90;;;0.49;100.00;99710.34;4976908;28;20510;-80
2021/03/01 08:16:19;;;;;;;16.87;6.40;;;-0.20;99.90;;;0.59;100.00;99710.66;5009471;28;20467;-79
2021/03/01 08:18:54;;;;;;;12.40;5.50;;;-0.10;99.90;;;0.71;100.00;99719.47;5009665;28;20462;-80
2021/03/01 08:21:22;;;;;;;11.17;5.33;;;0.00;99.90;;;0.96;100.00;99709.47;5009890;28;20463;-80
2021/03/01 08:23:50;;;;;;;13.33;5.53;;;0.30;99.90;;;1.13;100.00;99704.22;5009388;28;20455;-79
2021/03/01 08:26:31;;;;;;;10.67;5.00;;;0.60;99.90;;;1.34;100.00;99702.16;5009351;28;20454;-80
2021/03/01 08:29:02;;;;;;;8.80;5.33;;;0.80;99.90;;;1.51;100.00;99696.84;5010219;28;20498;-80
2021/03/01 08:31:42;;;;;;;10.83;5.23;;;0.90;99.90;;;1.69;100.00;99694.94;5009544;28;20807;-80
2021/03/01 08:34:37;;;;;;;10.17;5.40;;;1.10;99.90;;;1.90;100.00;99693.69;5009216;28;20822;-80
2021/03/01 08:37:07;;;;;;;10.07;5.20;;;1.30;99.90;;;2.01;100.00;99689.50;5010155;28;20593;-80
2021/03/01 08:40:00;;;;;;;9.13;4.87;;;1.50;99.90;;;2.18;100.00;99690.25;5009082;28;20470;-80
2021/03/01 08:42:57;;;;;;;9.90;5.20;;;1.70;99.90;;;2.32;100.00;99690.25;5009705;28;20470;-80
2021/03/01 08:45:40;;;;;;;11.80;5.30;;;1.80;99.90;;;2.49;100.00;99688.28;5010473;28;20545;-80
2021/03/01 08:48:17;;;;;;;9.20;4.90;;;2.00;99.90;;;2.65;100.00;99687.28;5009894;28;20529;-80
2021/03/01 08:50:46;;;;;;;10.73;5.03;;;2.20;99.90;;;2.78;100.00;99685.59;5008553;28;20454;-80
2021/03/01 08:53:23;;;;;;;12.03;5.50;;;2.30;99.90;;;2.90;100.00;99679.66;5010504;28;20592;-80
2021/03/01 08:55:53;;;;;;;12.60;5.70;;;2.40;99.90;;;3.01;100.00;99690.13;5009994;28;20494;-80
2021/03/01 08:58:25;;;;;;;8.50;4.87;;;2.50;99.90;;;3.15;100.00;99687.47;5008635;28;20466;-80
2021/03/01 09:00:55;;;;;;;8.43;4.77;;;2.60;99.90;;;3.24;100.00;99686.03;5009629;28;20482;-80
2021/03/01 09:03:29;;;;;;;10.40;5.50;;;2.70;99.90;;;3.33;100.00;99678.50;5009399;28;20475;-79
2021/03/01 09:06:07;;;;;;;10.97;5.50;;;2.80;99.90;;;3.43;100.00;99682.16;5008524;28;20508;-80
2021/03/01 09:08:38;;;;;;;15.83;5.47;;;2.90;99.90;;;3.48;100.00;99680.09;5010486;28;21072;-80
2021/03/01 09:11:15;;;;;;;6.93;5.13;;;2.90;99.90;;;3.58;100.00;99674.28;5010392;28;20469;-80
2021/03/01 09:13:46;;;;;;;10.83;5.17;;;3.00;99.90;;;3.64;100.00;99673.91;5009427;28;21031;-81
2021/03/01 09:16:17;;;;;;;8.83;5.10;;;3.10;99.90;;;3.72;100.00;99666.44;5009603;28;20874;-80
2021/03/01 09:18:47;;;;;;;10.77;5.83;;;3.30;99.90;;;3.80;100.00;99666.75;5009618;28;20885;-80
2021/03/01 09:21:16;;;;;;;9.07;5.13;;;3.20;99.90;;;3.85;100.00;99668.06;5008561;28;20912;-80
2021/03/01 09:23:47;;;;;;;9.30;5.40;;;3.30;99.90;;;3.92;100.00;99658.97;5009193;28;20454;-80
2021/03/01 09:26:25;;;;;;;13.03;5.40;;;3.40;99.90;;;4.00;100.00;99661.03;5009613;28;20459;-80
2021/03/01 09:28:56;;;;;;;14.10;6.70;;;3.50;99.90;;;4.07;100.00;99670.88;5012118;28;20486;-80
2021/03/01 09:31:30;;;;;;;9.83;5.37;;;3.60;99.90;;;4.13;100.00;99664.41;5012257;28;20451;-80
2021/03/01 09:33:58;;;;;;;10.80;5.03;;;3.60;99.90;;;4.20;100.00;99665.66;5012841;28;20455;-80
2021/03/01 09:36:31;;;;;;;14.77;6.70;;;3.70;99.90;;;4.27;100.00;99668.66;5013377;28;20932;-80
2021/03/01 09:39:01;;;;;;;11.50;6.07;;;3.70;99.90;;;4.34;100.00;99662.13;5013802;28;20459;-80
2021/03/01 09:41:48;;;;;;;10.50;5.63;;;3.80;99.90;;;4.39;100.00;99663.44;5014452;28;20450;-80
2021/03/01 09:44:25;;;;;;;10.10;5.30;;;3.90;99.90;;;4.44;100.00;99656.16;5013035;28;20518;-80
2021/03/01 09:46:56;;;;;;;13.50;5.70;;;4.00;99.90;;;4.53;100.00;99649.50;5013541;28;20458;-81
2021/03/01 09:49:29;;;;;;;9.87;5.80;;;4.00;99.90;;;4.59;100.00;99646.47;5013427;28;20502;-80
2021/03/01 09:51:59;;;;;;;11.50;5.40;;;4.10;99.90;;;4.63;100.00;99649.69;5013431;28;20477;-80
2021/03/01 09:54:29;;;;;;;17.10;6.50;;;4.10;99.90;;;4.69;100.00;99639.69;5013671;28;20478;-80
2021/03/01 09:57:05;;;;;;;7.97;5.20;;;4.20;99.90;;;4.78;100.00;99640.81;5012422;28;20517;-80
2021/03/01 09:59:36;;;;;;;12.70;6.13;;;4.30;99.90;;;4.83;100.00;99643.88;5013923;28;20447;-80
2021/03/01 10:02:10;;;;;;;13.73;5.80;;;4.40;99.90;;;4.90;100.00;99637.31;5013176;28;20546;-81
2021/03/01 10:04:39;;;;;;;8.53;5.00;;;4.40;99.90;;;4.92;100.00;99631.09;5011879;28;20566;-79
2021/03/01 10:07:21;;;;;;;12.23;6.20;;;4.40;99.90;;;4.99;100.00;99636.66;5012457;28;21030;-80
2021/03/01 10:09:51;;;;;;;9.87;5.60;;;4.50;99.90;;;5.03;100.00;99625.13;5013036;28;20863;-81
2021/03/01 10:12:22;;;;;;;10.37;5.40;;;4.50;99.90;;;5.10;100.00;99626.34;5013249;28;20967;-80
2021/03/01 10:14:58;;;;;;;9.33;5.20;;;4.60;99.90;;;5.16;100.00;99625.88;5012598;28;20820;-80
2021/03/01 10:17:30;;;;;;;8.90;4.63;;;4.70;99.90;;;5.24;100.00;99631.28;5011217;28;20820;-80
2021/03/01 10:20:07;;;;;;;9.20;5.50;;;4.80;99.90;;;5.29;100.00;99623.19;5013514;28;20855;-80
2021/03/01 10:23:09;;;;;;;9.20;5.53;;;4.80;99.90;;;5.34;100.00;99626.28;5012675;28;20450;-81
2021/03/01 10:26:08;;;;;;;11.13;5.73;;;4.90;99.90;;;5.40;100.00;99626.63;5012911;28;20451;-81
2021/03/01 10:28:38;;;;;;;11.83;5.27;;;4.90;99.90;;;5.44;100.00;99628.06;4995918;28;20446;-80
2021/03/01 10:31:14;;;;;;;11.57;6.00;;;5.00;99.90;;;5.48;100.00;99629.47;5013017;28;20935;-81
2021/03/01 10:33:59;;;;;;;11.33;5.30;;;5.00;99.90;;;5.52;100.00;99625.69;5013065;28;20469;-80
2021/03/01 10:36:33;;;;;;;7.50;5.13;;;5.00;99.90;;;5.55;100.00;99617.69;5012974;28;20471;-80